Time;durP1;ratioP1;P1;durP2;ratioP2;P2;SDS_P1;SDS_P2;PMS_P1;PMS_P2;Temp;Humidity;BMP_temperature;BMP_pressure;BME280_temperature;BME280_humidity;BME280_pressure;Samples;Min_cycle;Max_cycle;Signal;HPM_P1;HPM_P2
2021/09/05 00:00:56;;;;;;;0.50;0.50;;;18.30;99.90;;;;;;4985734;28;20207;-87
2021/09/05 00:03:21;;;;;;;1.67;0.63;;;18.00;99.90;;;;;;4957956;28;20216;-86
2021/09/05 00:05:47;;;;;;;0.87;0.80;;;18.00;99.90;;;;;;4949363;28;20224;-89
2021/09/05 00:08:12;;;;;;;1.17;0.50;;;17.90;99.90;;;;;;4956621;28;20639;-87
2021/09/05 00:10:38;;;;;;;1.77;0.70;;;17.90;99.90;;;;;;4975819;28;20188;-87
2021/09/05 00:13:04;;;;;;;1.00;0.90;;;17.80;99.90;;;;;;4957930;28;20208;-86
2021/09/05 00:15:29;;;;;;;0.30;0.30;;;17.50;99.90;;;;;;4990690;28;20192;-87
2021/09/05 00:17:55;;;;;;;1.20;0.87;;;17.60;99.90;;;;;;4973587;28;20637;-87
2021/09/05 00:20:20;;;;;;;0.87;0.87;;;17.50;99.90;;;;;;4957584;28;20226;-87
2021/09/05 00:22:46;;;;;;;0.70;0.70;;;17.40;99.90;;;;;;4975412;28;20566;-87
2021/09/05 00:25:12;;;;;;;0.70;0.70;;;17.30;99.90;;;;;;4966006;28;20199;-87
2021/09/05 00:27:38;;;;;;;1.33;1.10;;;17.20;99.90;;;;;;4973040;28;20181;-87
2021/09/05 00:30:05;;;;;;;0.53;0.53;;;17.20;99.90;;;;;;4975278;28;20192;-87
2021/09/05 00:32:30;;;;;;;0.97;0.73;;;17.30;99.90;;;;;;4957409;28;20188;-87
2021/09/05 00:34:56;;;;;;;0.83;0.83;;;17.40;99.90;;;;;;4957871;28;20559;-87
2021/09/05 00:37:21;;;;;;;0.90;0.90;;;17.30;99.90;;;;;;4974682;28;20648;-87
2021/09/05 00:39:47;;;;;;;0.70;0.70;;;17.30;99.90;;;;;;4957705;28;20204;-87
2021/09/05 00:42:23;;;;;;;1.23;0.93;;;17.20;99.90;;;;;;4975244;28;20263;-87
2021/09/05 00:44:49;;;;;;;0.33;0.33;;;17.10;99.90;;;;;;4957203;28;20204;-87
2021/09/05 00:47:14;;;;;;;1.13;1.07;;;17.00;99.90;;;;;;4955868;28;20192;-87
2021/09/05 00:49:40;;;;;;;0.60;0.50;;;17.20;99.90;;;;;;4957546;28;20195;-87
2021/09/05 00:52:06;;;;;;;0.40;0.40;;;17.20;99.90;;;;;;4986113;28;20215;-87
2021/09/05 00:54:32;;;;;;;0.57;0.57;;;17.20;99.90;;;;;;4975170;28;20224;-87
2021/09/05 00:56:57;;;;;;;0.77;0.60;;;17.20;99.90;;;;;;4974423;28;20186;-87
2021/09/05 00:59:23;;;;;;;1.40;1.00;;;17.10;99.90;;;;;;4953853;29;20594;-87
2021/09/05 01:01:49;;;;;;;0.40;0.40;;;17.20;99.90;;;;;;4974046;28;20556;-87
2021/09/05 01:04:15;;;;;;;0.30;0.30;;;17.10;99.90;;;;;;4989573;28;20645;-87
2021/09/05 01:06:41;;;;;;;0.80;0.80;;;17.20;99.90;;;;;;4956930;28;20188;-87
2021/09/05 01:09:07;;;;;;;0.80;0.80;;;17.20;99.90;;;;;;4957043;28;20188;-88
2021/09/05 01:11:34;;;;;;;0.53;0.53;;;17.20;99.90;;;;;;4957381;28;20192;-87
2021/09/05 01:14:02;;;;;;;1.10;0.80;;;17.20;99.90;;;;;;4970020;28;20216;-87
2021/09/05 01:16:30;;;;;;;1.00;1.00;;;17.10;99.90;;;;;;4958984;28;20199;-87
2021/09/05 01:19:02;;;;;;;0.47;0.30;;;17.20;99.90;;;;;;4974103;28;20172;-87
2021/09/05 01:21:28;;;;;;;1.33;1.10;;;17.10;99.90;;;;;;4962559;28;20216;-86
2021/09/05 01:23:54;;;;;;;1.07;0.60;;;17.20;99.90;;;;;;4953182;28;20208;-87
2021/09/05 01:26:21;;;;;;;1.17;0.90;;;17.30;99.90;;;;;;4973700;28;20184;-87
2021/09/05 01:28:47;;;;;;;0.40;0.40;;;17.10;99.90;;;;;;4988218;28;20250;-87
2021/09/05 01:31:13;;;;;;;1.17;0.80;;;16.90;99.90;;;;;;4957080;28;20184;-87
2021/09/05 01:33:38;;;;;;;0.93;0.50;;;16.80;99.90;;;;;;4956541;28;20208;-87
2021/09/05 01:36:04;;;;;;;1.33;1.00;;;16.70;99.90;;;;;;4956686;28;20196;-86
2021/09/05 01:38:32;;;;;;;0.77;0.70;;;16.70;99.90;;;;;;4973752;28;20196;-87
2021/09/05 01:40:58;;;;;;;0.53;0.53;;;16.70;99.90;;;;;;4956593;28;20291;-87
2021/09/05 01:43:25;;;;;;;0.40;0.40;;;16.80;99.90;;;;;;4956697;28;20283;-87
2021/09/05 01:45:50;;;;;;;2.30;1.30;;;16.90;99.90;;;;;;4973748;28;20184;-87
2021/09/05 01:48:16;;;;;;;1.10;0.63;;;17.00;99.90;;;;;;4956295;28;20180;-87
2021/09/05 01:50:41;;;;;;;1.10;0.90;;;17.10;99.90;;;;;;4956432;28;20219;-87
2021/09/05 01:53:07;;;;;;;0.43;0.43;;;17.20;99.90;;;;;;4956273;28;20595;-87
2021/09/05 01:55:32;;;;;;;1.43;0.50;;;17.20;99.90;;;;;;4953406;29;20567;-87
2021/09/05 01:57:58;;;;;;;0.87;0.87;;;17.20;99.90;;;;;;4966996;28;20632;-87
2021/09/05 02:00:23;;;;;;;1.13;0.47;;;17.20;99.90;;;;;;4956572;28;20216;-87
2021/09/05 02:02:49;;;;;;;0.23;0.23;;;17.20;99.90;;;;;;4956187;28;20226;-87
2021/09/05 02:05:15;;;;;;;0.63;0.63;;;17.20;99.90;;;;;;4956523;28;20645;-87
2021/09/05 02:07:40;;;;;;;0.90;0.90;;;17.10;99.90;;;;;;4972763;28;20574;-88
2021/09/05 02:10:06;;;;;;;0.80;0.80;;;17.10;99.90;;;;;;4986820;23;20261;-82
2021/09/05 02:12:31;;;;;;;0.40;0.40;;;17.10;99.90;;;;;;4955628;28;20671;-82
2021/09/05 02:14:57;;;;;;;0.80;0.57;;;17.10;99.90;;;;;;4956745;28;20181;-83
2021/09/05 02:17:23;;;;;;;0.50;0.50;;;17.00;99.90;;;;;;4972820;28;20837;-82
2021/09/05 02:19:48;;;;;;;1.23;0.63;;;17.10;99.90;;;;;;4959439;28;20626;-82
2021/09/05 02:22:14;;;;;;;1.27;0.67;;;17.00;99.90;;;;;;4973107;28;20280;-82
2021/09/05 02:24:40;;;;;;;1.00;1.00;;;16.90;99.90;;;;;;4962202;28;20207;-81
2021/09/05 02:27:05;;;;;;;0.50;0.50;;;16.80;99.90;;;;;;4955436;28;20187;-82
2021/09/05 02:29:31;;;;;;;2.67;0.77;;;16.90;99.90;;;;;;4954241;28;20207;-82
2021/09/05 02:31:58;;;;;;;0.70;0.70;;;16.80;99.90;;;;;;4955664;28;20653;-82
2021/09/05 02:34:23;;;;;;;1.07;0.57;;;16.70;99.90;;;;;;4963484;28;20187;-82
2021/09/05 02:36:49;;;;;;;0.77;0.67;;;16.60;99.90;;;;;;4954744;28;20188;-82
2021/09/05 02:39:15;;;;;;;1.73;0.87;;;16.50;99.90;;;;;;4972042;28;20687;-82
2021/09/05 02:41:40;;;;;;;0.70;0.70;;;16.40;99.90;;;;;;4954348;28;20563;-82
2021/09/05 02:44:06;;;;;;;1.40;0.83;;;16.30;99.90;;;;;;4960329;28;20195;-82
2021/09/05 02:46:31;;;;;;;0.63;0.60;;;16.30;99.90;;;;;;4955843;28;20192;-82
2021/09/05 02:48:57;;;;;;;0.67;0.53;;;16.40;99.90;;;;;;4963366;28;20228;-82
2021/09/05 02:51:23;;;;;;;0.60;0.60;;;16.40;99.90;;;;;;4980576;28;20184;-82
2021/09/05 02:53:48;;;;;;;0.30;0.30;;;16.50;99.90;;;;;;4953885;28;20179;-80
2021/09/05 02:56:14;;;;;;;0.63;0.47;;;16.50;99.90;;;;;;4955072;28;20191;-82
2021/09/05 02:58:39;;;;;;;0.63;0.63;;;16.50;99.90;;;;;;4972126;28;20252;-82
2021/09/05 03:01:06;;;;;;;1.67;0.73;;;16.50;99.90;;;;;;4954684;28;20216;-81
2021/09/05 03:03:31;;;;;;;1.07;0.90;;;16.40;99.90;;;;;;4953611;28;20183;-82
2021/09/05 03:05:57;;;;;;;0.47;0.47;;;16.40;99.90;;;;;;4975089;28;20196;-81
2021/09/05 03:08:22;;;;;;;0.50;0.50;;;16.40;99.90;;;;;;4973379;28;20696;-81
2021/09/05 03:10:48;;;;;;;1.13;0.93;;;16.30;99.90;;;;;;4975468;28;20583;-82
2021/09/05 03:13:13;;;;;;;1.07;0.97;;;16.30;99.90;;;;;;4959225;28;20179;-82
2021/09/05 03:15:39;;;;;;;0.40;0.40;;;16.20;99.90;;;;;;4966811;28;20197;-80
2021/09/05 03:18:05;;;;;;;1.20;0.93;;;16.10;99.90;;;;;;4976639;28;20190;-80
2021/09/05 03:20:30;;;;;;;0.30;0.30;;;15.90;99.90;;;;;;4958864;28;20219;-82
2021/09/05 03:22:56;;;;;;;0.57;0.57;;;15.80;99.90;;;;;;4958102;28;20216;-82
2021/09/05 03:25:21;;;;;;;0.50;0.50;;;15.80;99.90;;;;;;4975738;28;20218;-82
2021/09/05 03:27:47;;;;;;;1.00;1.00;;;15.80;99.90;;;;;;4973780;28;20221;-82
2021/09/05 03:30:13;;;;;;;5.40;0.90;;;15.80;99.90;;;;;;4960696;28;20285;-82
2021/09/05 03:32:38;;;;;;;0.83;0.80;;;15.70;99.90;;;;;;4957937;28;20710;-82
2021/09/05 03:35:04;;;;;;;1.30;0.77;;;15.60;99.90;;;;;;4980123;28;20203;-82
2021/09/05 03:37:30;;;;;;;0.70;0.70;;;15.70;99.90;;;;;;4957239;28;20270;-84
2021/09/05 03:39:55;;;;;;;0.53;0.50;;;15.70;99.90;;;;;;4960814;28;20214;-82
2021/09/05 03:42:21;;;;;;;0.80;0.53;;;15.60;99.90;;;;;;4957767;28;20191;-82
2021/09/05 03:44:46;;;;;;;0.97;0.87;;;15.70;99.90;;;;;;4958419;28;20202;-82
2021/09/05 03:47:13;;;;;;;2.47;0.73;;;15.70;99.90;;;;;;4958502;28;20191;-82
2021/09/05 03:49:39;;;;;;;0.27;0.27;;;15.70;99.90;;;;;;4957676;28;20211;-83
2021/09/05 03:52:05;;;;;;;1.13;0.67;;;15.70;99.90;;;;;;4965748;28;20247;-82
2021/09/05 03:54:30;;;;;;;0.33;0.33;;;15.70;99.90;;;;;;4961453;28;20192;-82
2021/09/05 03:56:56;;;;;;;1.30;0.77;;;15.90;99.90;;;;;;4969934;28;20194;-82
2021/09/05 03:59:21;;;;;;;0.40;0.40;;;15.90;99.90;;;;;;4969768;28;20221;-82
2021/09/05 04:01:47;;;;;;;0.50;0.50;;;16.00;99.90;;;;;;4958543;28;20190;-83
2021/09/05 04:04:13;;;;;;;0.60;0.60;;;15.90;99.90;;;;;;4967603;28;20647;-83
2021/09/05 04:06:38;;;;;;;0.50;0.47;;;15.90;99.90;;;;;;4968957;28;20207;-82
2021/09/05 04:09:17;;;;;;;0.40;0.40;;;15.90;99.90;;;;;;4957713;28;20234;-83
2021/09/05 04:11:44;;;;;;;0.83;0.50;;;16.00;99.90;;;;;;4974749;28;20179;-82
2021/09/05 04:14:09;;;;;;;2.53;1.23;;;16.00;99.90;;;;;;4942129;28;20189;-81
2021/09/05 04:16:35;;;;;;;0.53;0.50;;;16.10;99.90;;;;;;4956710;28;20191;-84
2021/09/05 04:19:00;;;;;;;0.67;0.67;;;16.10;99.90;;;;;;4968290;28;20262;-83
2021/09/05 04:21:26;;;;;;;2.07;0.80;;;16.10;99.90;;;;;;4973711;28;20196;-83
2021/09/05 04:23:52;;;;;;;1.13;1.03;;;15.90;99.90;;;;;;4955714;28;20183;-83
2021/09/05 04:26:18;;;;;;;0.90;0.73;;;15.80;99.90;;;;;;4946506;28;20565;-86
2021/09/05 04:28:44;;;;;;;0.70;0.40;;;15.70;99.90;;;;;;4955287;28;20211;-83
2021/09/05 04:31:10;;;;;;;0.27;0.27;;;15.60;99.90;;;;;;4955289;28;20192;-84
2021/09/05 04:33:35;;;;;;;0.73;0.53;;;15.60;99.90;;;;;;4956737;28;20210;-84
2021/09/05 04:36:03;;;;;;;0.93;0.40;;;15.50;99.90;;;;;;4955901;28;20221;-82
2021/09/05 04:38:28;;;;;;;1.67;0.63;;;15.50;99.90;;;;;;4971890;28;20326;-82
2021/09/05 04:40:54;;;;;;;1.40;0.67;;;15.60;99.90;;;;;;4973345;28;20306;-83
2021/09/05 04:43:19;;;;;;;0.70;0.70;;;15.70;99.90;;;;;;4956436;28;20660;-83
2021/09/05 04:45:45;;;;;;;0.57;0.50;;;15.80;99.90;;;;;;4973089;28;20183;-82
2021/09/05 04:48:11;;;;;;;1.50;0.67;;;15.80;99.90;;;;;;4972656;28;20183;-84
2021/09/05 04:50:36;;;;;;;0.47;0.40;;;15.80;99.90;;;;;;4955921;28;20215;-84
2021/09/05 04:53:02;;;;;;;0.30;0.30;;;16.00;99.90;;;;;;4972928;28;20195;-83
2021/09/05 04:55:27;;;;;;;0.57;0.57;;;15.90;99.90;;;;;;4956032;28;20191;-83
2021/09/05 04:57:53;;;;;;;1.80;0.93;;;15.80;99.90;;;;;;4950178;28;20248;-84
2021/09/05 05:00:19;;;;;;;1.07;0.53;;;15.90;99.90;;;;;;4970847;28;20273;-84
2021/09/05 05:02:44;;;;;;;0.63;0.60;;;16.00;99.90;;;;;;4956378;28;20200;-84
2021/09/05 05:05:10;;;;;;;0.77;0.77;;;16.00;99.90;;;;;;4949624;28;20610;-83
2021/09/05 05:07:36;;;;;;;0.57;0.53;;;16.00;99.90;;;;;;4967381;28;20239;-83
2021/09/05 05:10:01;;;;;;;0.60;0.60;;;16.10;99.90;;;;;;4972066;28;20637;-86
2021/09/05 05:12:27;;;;;;;0.40;0.40;;;16.10;99.90;;;;;;4973875;28;20844;-86
2021/09/05 05:14:52;;;;;;;1.07;0.37;;;16.20;99.90;;;;;;4970918;28;20196;-85
2021/09/05 05:17:18;;;;;;;0.70;0.60;;;16.10;99.90;;;;;;4959263;28;20191;-84
2021/09/05 05:19:43;;;;;;;0.67;0.60;;;16.10;99.90;;;;;;4954912;28;20281;-85
2021/09/05 05:22:09;;;;;;;1.13;0.90;;;16.10;99.90;;;;;;4955820;28;20275;-85
2021/09/05 05:24:35;;;;;;;1.70;1.00;;;16.10;99.90;;;;;;4955984;28;20195;-82
2021/09/05 05:27:00;;;;;;;0.33;0.33;;;15.90;99.90;;;;;;4955564;28;20645;-82
2021/09/05 05:29:26;;;;;;;0.50;0.50;;;15.70;99.90;;;;;;4954368;28;20234;-82
2021/09/05 05:31:53;;;;;;;0.47;0.47;;;15.70;99.90;;;;;;4955443;28;20219;-82
2021/09/05 05:34:18;;;;;;;0.30;0.30;;;15.90;99.90;;;;;;4954235;28;20188;-81
2021/09/05 05:36:44;;;;;;;1.87;0.80;;;16.00;99.90;;;;;;4955266;28;20219;-82
2021/09/05 05:39:09;;;;;;;0.60;0.40;;;16.00;99.90;;;;;;4951643;28;20224;-82
2021/09/05 05:41:35;;;;;;;0.83;0.73;;;16.10;99.90;;;;;;4971557;28;20191;-85
2021/09/05 05:44:00;;;;;;;2.67;0.80;;;16.10;99.90;;;;;;4971579;28;20209;-85
2021/09/05 05:46:26;;;;;;;0.40;0.40;;;16.30;99.90;;;;;;4970300;28;20246;-85
2021/09/05 05:48:51;;;;;;;0.73;0.57;;;16.40;99.90;;;;;;4970758;28;20207;-86
2021/09/05 05:51:17;;;;;;;0.73;0.47;;;16.40;99.90;;;;;;4970626;28;20211;-85
2021/09/05 05:53:44;;;;;;;0.63;0.57;;;16.40;99.90;;;;;;4961288;28;20200;-84
2021/09/05 05:56:10;;;;;;;0.83;0.83;;;16.30;99.90;;;;;;4948316;28;20279;-85
2021/09/05 05:58:35;;;;;;;0.70;0.50;;;16.20;99.90;;;;;;4967475;28;20294;-85
2021/09/05 06:01:01;;;;;;;0.97;0.97;;;16.20;99.90;;;;;;4968866;28;20214;-85
2021/09/05 06:03:27;;;;;;;1.10;0.73;;;16.30;99.90;;;;;;4969172;28;20192;-85
2021/09/05 06:05:52;;;;;;;0.40;0.40;;;16.50;99.90;;;;;;4969811;28;20247;-81
2021/09/05 06:08:19;;;;;;;1.97;1.37;;;16.70;99.90;;;;;;4970354;28;20195;-81
2021/09/05 06:10:45;;;;;;;1.20;1.10;;;16.90;99.90;;;;;;4953415;28;20215;-81
2021/09/05 06:13:10;;;;;;;0.90;0.87;;;17.10;99.90;;;;;;4972063;28;20199;-80
2021/09/05 06:15:36;;;;;;;1.33;0.70;;;17.30;99.90;;;;;;4967456;28;20196;-82
2021/09/05 06:18:02;;;;;;;0.50;0.40;;;17.50;99.90;;;;;;4948756;28;20192;-83
2021/09/05 06:20:28;;;;;;;1.90;1.00;;;17.80;99.90;;;;;;4954639;28;20274;-82
2021/09/05 06:22:54;;;;;;;0.67;0.67;;;17.80;99.90;;;;;;4971700;28;20200;-82
2021/09/05 06:25:19;;;;;;;2.10;0.73;;;18.10;99.90;;;;;;4955316;28;20203;-82
2021/09/05 06:27:45;;;;;;;1.70;0.70;;;18.20;99.90;;;;;;4951040;28;20271;-82
2021/09/05 06:30:11;;;;;;;0.90;0.80;;;18.30;99.90;;;;;;4970424;28;20253;-82
2021/09/05 06:32:37;;;;;;;3.47;1.33;;;18.50;99.90;;;;;;4953602;28;20204;-83
2021/09/05 06:35:04;;;;;;;1.90;0.87;;;18.70;99.90;;;;;;4971084;28;20188;-82
2021/09/05 06:37:29;;;;;;;0.80;0.80;;;18.80;99.90;;;;;;4971309;28;20192;-81
2021/09/05 06:39:57;;;;;;;2.07;1.13;;;19.00;99.90;;;;;;4955198;28;20209;-83
2021/09/05 06:42:22;;;;;;;0.70;0.70;;;19.10;99.90;;;;;;4954673;28;20537;-82
2021/09/05 06:44:48;;;;;;;1.10;1.00;;;19.30;99.90;;;;;;4961095;28;20192;-82
2021/09/05 06:47:13;;;;;;;1.00;0.83;;;19.40;99.90;;;;;;4956305;28;20448;-81
2021/09/05 06:49:39;;;;;;;0.67;0.67;;;19.60;99.90;;;;;;4971331;28;20223;-82
2021/09/05 06:52:05;;;;;;;1.00;1.00;;;19.80;99.90;;;;;;4955737;28;20258;-83
2021/09/05 06:54:31;;;;;;;1.53;1.00;;;19.90;99.90;;;;;;4973838;28;20264;-83
2021/09/05 06:56:56;;;;;;;1.50;1.00;;;20.10;99.90;;;;;;4956322;28;20276;-85
2021/09/05 06:59:22;;;;;;;1.20;1.10;;;20.20;99.90;;;;;;4957596;28;20239;-82
2021/09/05 07:01:47;;;;;;;1.63;1.53;;;20.30;99.90;;;;;;4974629;28;20267;-83
2021/09/05 07:04:13;;;;;;;0.87;0.87;;;20.40;99.90;;;;;;4955134;28;20193;-82
2021/09/05 07:06:38;;;;;;;0.93;0.93;;;20.50;99.90;;;;;;4974820;28;20528;-82
2021/09/05 07:09:04;;;;;;;1.03;0.83;;;20.50;99.90;;;;;;4975765;28;20278;-81
2021/09/05 07:11:30;;;;;;;1.33;0.73;;;20.70;99.90;;;;;;4975988;28;20719;-83
2021/09/05 07:13:55;;;;;;;0.43;0.43;;;20.80;99.90;;;;;;4958673;28;20187;-83
2021/09/05 07:16:21;;;;;;;1.27;0.93;;;20.80;99.90;;;;;;4975606;28;20188;-83
2021/09/05 07:18:46;;;;;;;1.60;0.80;;;21.00;99.90;;;;;;4952871;28;20216;-81
2021/09/05 07:21:12;;;;;;;1.10;0.80;;;21.00;99.90;;;;;;4976047;28;20243;-82
2021/09/05 07:23:37;;;;;;;1.57;0.40;;;21.10;99.90;;;;;;4969631;28;20609;-83
2021/09/05 07:26:04;;;;;;;1.60;0.90;;;21.20;99.90;;;;;;4975510;28;20217;-82
2021/09/05 07:28:32;;;;;;;1.70;0.97;;;21.30;99.90;;;;;;4956667;28;20179;-82
2021/09/05 07:30:59;;;;;;;0.80;0.80;;;21.40;99.90;;;;;;4968966;28;20245;-83
2021/09/05 07:33:25;;;;;;;1.20;0.73;;;21.40;99.90;;;;;;4966042;28;20185;-82
2021/09/05 07:35:51;;;;;;;0.63;0.63;;;21.60;99.90;;;;;;4958515;28;20197;-82
2021/09/05 07:38:16;;;;;;;0.87;0.87;;;21.70;99.90;;;;;;4964692;28;20185;-83
2021/09/05 07:40:42;;;;;;;1.40;0.90;;;21.90;99.90;;;;;;4959189;28;20216;-82
2021/09/05 07:43:07;;;;;;;1.40;1.30;;;22.00;99.90;;;;;;4971765;28;20181;-83
2021/09/05 07:45:34;;;;;;;0.83;0.73;;;22.10;99.90;;;;;;4974163;28;20308;-81
2021/09/05 07:47:59;;;;;;;0.80;0.80;;;22.20;99.90;;;;;;4975333;28;20195;-82
2021/09/05 07:50:25;;;;;;;0.60;0.60;;;22.40;99.90;;;;;;4956495;28;20227;-81
2021/09/05 07:52:50;;;;;;;1.67;1.13;;;22.40;99.90;;;;;;4961858;28;20184;-83
2021/09/05 07:55:16;;;;;;;0.70;0.70;;;22.20;99.90;;;;;;4955589;28;20275;-83
2021/09/05 07:57:41;;;;;;;0.80;0.80;;;22.20;99.90;;;;;;4972843;28;20180;-82
2021/09/05 08:00:07;;;;;;;2.00;0.97;;;22.50;99.90;;;;;;4955734;28;20299;-82
2021/09/05 08:02:33;;;;;;;1.10;0.90;;;22.70;99.90;;;;;;4957025;28;20690;-81
2021/09/05 08:04:58;;;;;;;1.47;1.23;;;22.90;99.90;;;;;;4973533;28;20267;-83
2021/09/05 08:07:24;;;;;;;0.90;0.77;;;23.00;99.90;;;;;;4965055;28;20285;-83
2021/09/05 08:09:50;;;;;;;0.90;0.90;;;23.00;99.90;;;;;;4950788;28;20251;-83
2021/09/05 08:12:15;;;;;;;2.83;1.30;;;22.40;99.90;;;;;;4953792;28;20220;-85
2021/09/05 08:14:41;;;;;;;1.50;0.70;;;22.70;99.90;;;;;;4972099;28;20282;-82
2021/09/05 08:17:06;;;;;;;0.80;0.80;;;22.80;99.90;;;;;;4953296;28;20209;-82
2021/09/05 08:19:32;;;;;;;0.90;0.90;;;22.50;99.90;;;;;;4972864;28;20215;-82
2021/09/05 08:21:58;;;;;;;1.33;1.00;;;22.30;99.90;;;;;;4973118;28;20645;-80
2021/09/05 08:24:23;;;;;;;1.20;1.10;;;22.10;99.90;;;;;;4974546;28;20255;-82
2021/09/05 08:26:49;;;;;;;2.30;1.53;;;22.60;99.90;;;;;;4961301;28;20180;-82
2021/09/05 08:29:14;;;;;;;1.03;1.03;;;23.10;99.90;;;;;;4955287;28;20215;-82
2021/09/05 08:31:40;;;;;;;3.03;1.53;;;23.30;99.90;;;;;;4956813;28;20183;-82
2021/09/05 08:34:06;;;;;;;1.53;1.17;;;23.60;99.90;;;;;;4954677;28;20227;-81
2021/09/05 08:36:31;;;;;;;0.73;0.73;;;23.60;99.90;;;;;;4968615;28;20262;-83
2021/09/05 08:38:58;;;;;;;2.53;1.80;;;23.70;99.90;;;;;;4956577;28;20203;-82
2021/09/05 08:41:25;;;;;;;0.73;0.73;;;23.80;99.90;;;;;;4957147;28;20719;-82
2021/09/05 08:43:51;;;;;;;1.13;1.00;;;23.70;99.90;;;;;;4973274;28;20181;-82
2021/09/05 08:46:17;;;;;;;3.33;1.60;;;22.90;99.90;;;;;;4972959;28;20195;-82
2021/09/05 08:48:44;;;;;;;1.70;1.60;;;23.20;99.90;;;;;;4954113;28;20205;-82
2021/09/05 08:51:11;;;;;;;0.90;0.80;;;23.40;99.90;;;;;;4956582;28;20243;-82
2021/09/05 08:53:37;;;;;;;2.73;1.57;;;23.50;99.90;;;;;;4967876;28;20348;-82
2021/09/05 08:56:02;;;;;;;1.03;1.00;;;23.70;99.90;;;;;;4954464;28;20261;-82
2021/09/05 08:58:28;;;;;;;1.27;1.13;;;23.90;99.90;;;;;;4954213;28;20688;-83
2021/09/05 09:00:53;;;;;;;2.63;1.43;;;24.30;99.90;;;;;;4956505;28;20211;-83
2021/09/05 09:03:22;;;;;;;2.23;1.00;;;24.40;99.90;;;;;;4955724;28;20184;-84
2021/09/05 09:05:56;;;;;;;1.70;1.37;;;24.40;99.90;;;;;;4958116;28;20272;-83
2021/09/05 09:08:23;;;;;;;1.27;1.07;;;24.70;99.90;;;;;;4949882;28;20699;-82
2021/09/05 09:10:54;;;;;;;0.83;0.83;;;25.00;99.90;;;;;;4973320;28;20271;-82
2021/09/05 09:13:27;;;;;;;2.20;1.13;;;25.20;99.90;;;;;;4954326;28;20189;-82
2021/09/05 09:15:54;;;;;;;2.97;1.23;;;25.30;99.90;;;;;;4973249;28;20181;-83
2021/09/05 09:18:28;;;;;;;0.97;0.90;;;25.20;99.90;;;;;;4959800;28;20220;-81
2021/09/05 09:20:55;;;;;;;0.90;0.83;;;25.30;99.90;;;;;;4973661;28;20208;-83
2021/09/05 09:23:24;;;;;;;2.47;1.07;;;25.50;99.90;;;;;;4957991;28;20181;-81
2021/09/05 09:25:56;;;;;;;1.23;1.00;;;25.50;99.90;;;;;;4956463;28;20272;-83
2021/09/05 09:28:32;;;;;;;2.97;2.13;;;25.70;99.90;;;;;;4972336;28;20263;-83
2021/09/05 09:31:01;;;;;;;0.87;0.83;;;25.00;99.90;;;;;;4973204;28;20898;-83
2021/09/05 09:33:28;;;;;;;1.87;1.20;;;24.90;99.90;;;;;;4959156;28;20185;-83
2021/09/05 09:35:57;;;;;;;1.97;1.10;;;25.30;99.90;;;;;;4955887;28;20192;-83
2021/09/05 09:38:23;;;;;;;1.70;1.27;;;25.10;99.90;;;;;;4958276;28;20676;-81
2021/09/05 09:40:49;;;;;;;1.00;0.50;;;25.40;99.90;;;;;;4947862;28;20291;-81
2021/09/05 09:43:22;;;;;;;1.90;1.47;;;25.50;99.90;;;;;;4952532;28;20664;-82
2021/09/05 09:45:50;;;;;;;1.40;1.10;;;25.40;99.90;;;;;;4954389;28;20172;-82
2021/09/05 09:48:25;;;;;;;1.20;1.20;;;25.50;99.90;;;;;;4971638;28;20299;-82
2021/09/05 09:50:59;;;;;;;4.53;1.53;;;25.70;99.90;;;;;;4950505;28;20176;-84
2021/09/05 09:53:26;;;;;;;1.33;0.97;;;25.20;99.90;;;;;;4972635;28;20271;-83
2021/09/05 09:55:52;;;;;;;1.30;1.23;;;25.20;99.90;;;;;;4966165;28;20226;-82
2021/09/05 09:58:18;;;;;;;1.60;1.50;;;25.60;99.90;;;;;;4982835;28;20667;-82
2021/09/05 10:00:44;;;;;;;2.33;1.77;;;25.90;99.90;;;;;;4966357;28;20204;-83
2021/09/05 10:03:11;;;;;;;1.33;0.80;;;26.30;99.90;;;;;;4970940;28;20191;-83
2021/09/05 10:05:39;;;;;;;1.67;1.57;;;26.50;99.90;;;;;;4959574;28;20192;-83
2021/09/05 10:08:07;;;;;;;1.97;1.27;;;26.50;99.90;;;;;;4955584;28;20184;-83
2021/09/05 10:10:33;;;;;;;1.57;1.13;;;26.70;99.90;;;;;;4955410;28;20239;-83
2021/09/05 10:13:00;;;;;;;1.40;1.23;;;25.70;99.90;;;;;;4969547;28;20185;-83
2021/09/05 10:15:26;;;;;;;2.20;1.17;;;26.10;99.90;;;;;;4951410;28;20549;-81
2021/09/05 10:17:52;;;;;;;1.63;1.53;;;26.30;99.90;;;;;;4966883;28;20216;-82
2021/09/05 10:20:18;;;;;;;2.33;1.53;;;26.60;99.90;;;;;;4965213;28;20251;-83
2021/09/05 10:22:44;;;;;;;1.57;0.83;;;26.70;99.90;;;;;;4954969;28;20275;-82
2021/09/05 10:25:11;;;;;;;1.17;1.10;;;26.90;99.90;;;;;;4952721;28;20637;-82
2021/09/05 10:27:38;;;;;;;0.50;0.50;;;26.80;99.90;;;;;;4954805;28;20218;-83
2021/09/05 10:30:10;;;;;;;1.60;1.47;;;27.00;99.90;;;;;;4947457;28;20214;-83
2021/09/05 10:32:53;;;;;;;1.63;1.13;;;27.20;99.90;;;;;;4968683;28;20228;-82
2021/09/05 10:35:48;;;;;;;1.60;1.10;;;26.30;99.90;;;;;;4952983;28;20205;-82
2021/09/05 10:38:21;;;;;;;1.60;1.50;;;26.80;99.90;;;;;;4949692;28;20227;-84
2021/09/05 10:40:53;;;;;;;2.80;2.10;;;26.50;99.90;;;;;;4953574;28;20212;-81
2021/09/05 10:43:20;;;;;;;1.17;1.17;;;26.60;99.90;;;;;;4963449;28;20176;-82
2021/09/05 10:45:50;;;;;;;1.40;0.90;;;27.00;99.90;;;;;;4960144;28;20184;-83
2021/09/05 10:48:43;;;;;;;2.13;1.37;;;27.40;99.90;;;;;;4972329;28;20184;-82
2021/09/05 10:51:14;;;;;;;4.20;1.70;;;27.60;99.90;;;;;;4971580;28;20266;-82
2021/09/05 10:53:49;;;;;;;1.50;1.23;;;27.10;99.90;;;;;;4971145;28;20180;-83
2021/09/05 10:56:17;;;;;;;2.43;1.30;;;26.50;99.90;;;;;;4951850;28;20196;-83
2021/09/05 10:58:53;;;;;;;1.50;1.40;;;27.10;99.90;;;;;;4968908;28;20215;-83
2021/09/05 11:01:20;;;;;;;1.53;1.03;;;27.00;99.90;;;;;;4955766;28;20266;-83
2021/09/05 11:04:25;;;;;;;2.53;1.63;;;27.30;99.90;;;;;;4968629;28;20348;-83
2021/09/05 11:07:06;;;;;;;1.33;0.97;;;27.20;99.90;;;;;;4893663;29;20202;-83
2021/09/05 11:09:31;;;;;;;0.80;0.80;;;27.60;99.90;;;;;;4905366;29;20218;-83
2021/09/05 11:12:12;;;;;;;2.13;1.53;;;27.70;99.90;;;;;;4922634;28;20604;-85
2021/09/05 11:14:38;;;;;;;1.27;1.00;;;27.10;99.90;;;;;;4952793;28;20180;-82
2021/09/05 11:17:18;;;;;;;1.27;1.17;;;27.00;99.90;;;;;;4950570;28;20779;-82
2021/09/05 11:20:00;;;;;;;2.40;1.37;;;27.20;99.90;;;;;;4945259;28;20201;-83
2021/09/05 11:22:31;;;;;;;1.60;1.17;;;27.30;99.90;;;;;;4951988;28;20240;-82
2021/09/05 11:25:15;;;;;;;1.27;1.00;;;27.30;99.90;;;;;;4954631;28;20242;-83
2021/09/05 11:27:52;;;;;;;3.53;0.93;;;27.30;99.90;;;;;;4954249;28;20177;-83
2021/09/05 11:30:18;;;;;;;2.40;0.77;;;27.80;99.90;;;;;;4967642;28;20208;-82
2021/09/05 11:32:44;;;;;;;1.07;0.70;;;28.10;99.90;;;;;;4958740;28;20207;-82
2021/09/05 11:35:11;;;;;;;2.27;1.20;;;27.90;99.90;;;;;;4957341;28;20197;-83
2021/09/05 11:37:40;;;;;;;0.70;0.70;;;27.90;99.90;;;;;;4969416;28;20209;-83
2021/09/05 11:40:07;;;;;;;1.07;1.00;;;28.10;99.90;;;;;;4969801;28;20208;-82
2021/09/05 11:42:34;;;;;;;1.17;1.07;;;28.20;99.90;;;;;;4958925;28;20173;-82
2021/09/05 11:45:06;;;;;;;3.33;0.93;;;27.80;99.90;;;;;;4963878;28;20172;-83
2021/09/05 11:47:32;;;;;;;1.20;1.10;;;27.90;99.90;;;;;;4955559;28;20219;-82
2021/09/05 11:49:58;;;;;;;0.70;0.68;;;28.40;99.90;;;;;;4958655;28;20243;-83
2021/09/05 11:52:26;;;;;;;1.90;0.98;;;28.70;99.90;;;;;;4959012;28;20199;-82
2021/09/05 11:55:08;;;;;;;2.75;1.23;;;28.90;99.90;;;;;;4958462;28;20560;-82
2021/09/05 11:57:35;;;;;;;1.30;1.17;;;28.30;99.90;;;;;;4956730;28;20185;-83
2021/09/05 12:00:05;;;;;;;1.30;1.13;;;27.80;99.90;;;;;;4957245;28;20220;-83
2021/09/05 12:02:32;;;;;;;1.97;1.00;;;27.20;99.90;;;;;;4956599;28;20307;-82
2021/09/05 12:04:58;;;;;;;1.03;1.00;;;27.30;99.90;;;;;;4968113;28;20646;-83
2021/09/05 12:07:25;;;;;;;0.60;0.60;;;27.20;99.90;;;;;;4961180;28;20216;-83
2021/09/05 12:10:04;;;;;;;1.42;1.00;;;27.90;99.90;;;;;;4958412;28;20216;-80
2021/09/05 12:12:30;;;;;;;1.70;0.75;;;28.30;99.90;;;;;;4968461;28;20631;-83
2021/09/05 12:14:55;;;;;;;3.15;0.98;;;28.60;99.90;;;;;;4956266;28;20323;-82
2021/09/05 12:17:26;;;;;;;1.77;1.05;;;28.80;99.90;;;;;;4972991;28;20189;-82
2021/09/05 12:19:57;;;;;;;1.70;0.98;;;28.70;99.90;;;;;;4952847;28;20259;-83
2021/09/05 12:22:23;;;;;;;0.93;0.80;;;29.00;99.90;;;;;;4969534;28;20191;-82
2021/09/05 12:24:57;;;;;;;1.95;1.35;;;29.00;99.90;;;;;;4956808;28;20176;-82
2021/09/05 12:27:23;;;;;;;0.65;0.65;;;29.10;99.90;;;;;;4955246;28;20596;-82
2021/09/05 12:29:48;;;;;;;1.80;0.80;;;29.30;99.90;;;;;;4971839;28;20227;-83
2021/09/05 12:32:15;;;;;;;0.55;0.55;;;28.80;99.90;;;;;;4950486;28;20763;-83
2021/09/05 12:34:45;;;;;;;0.77;0.77;;;29.10;99.90;;;;;;4956927;28;20191;-83
2021/09/05 12:37:19;;;;;;;1.40;0.98;;;29.20;99.90;;;;;;4972612;28;20177;-83
2021/09/05 12:39:47;;;;;;;1.88;0.80;;;29.20;99.90;;;;;;4971227;28;20203;-82
2021/09/05 12:42:14;;;;;;;0.88;0.88;;;29.00;99.90;;;;;;4973111;28;20181;-83
2021/09/05 12:44:51;;;;;;;1.75;0.88;;;29.00;99.90;;;;;;4960800;28;20192;-83
2021/09/05 12:47:24;;;;;;;1.55;0.88;;;28.50;99.90;;;;;;4972555;28;20690;-82